Springhouse, Pennsylvania
Current Conditions -  °F | °C
As of 6:55 PM on Saturday 25 Oct 2014 (Local Time) from KLOM Reporting Station
Overcast Overcast  
Wind Chill: 64°   Ceiling: 7000
Heat Index: 64°   Visibility: 10mi
Dew Point: 45°   Wind: 3mph
Humidity: 49%   Direction: 230°SW
Pressure: 29.67"   Gusts: NA
Location:  40.1858°N, 75.2283°W
Report Text: KLOM 252255Z AUTO 23003KT 10SM OVC070 18/07 A2967 RMK AO1
Loading
Personal Weather Stations






























Interactive Weather Map
Tropical Storm Tracking
New forecast layout! Learn more

10-Day Weather Forecast

Advertisements
Track Severe Weather on mobile